Time;durP1;ratioP1;P1;durP2;ratioP2;P2;SDS_P1;SDS_P2;PMS_P1;PMS_P2;Temp;Humidity;BMP_temperature;BMP_pressure;BME280_temperature;BME280_humidity;BME280_pressure;Samples;Min_cycle;Max_cycle;Signal;HPM_P1;HPM_P2
2021/04/20 04:44:32;;;;;;;19.67;5.77;;;;;;;;;;6284455;22;884503;-80
2021/04/20 04:46:58;;;;;;;14.02;5.55;;;;;;;;;;6312915;22;20015;-79
2021/04/20 04:51:42;;;;;;;19.55;5.35;;;;;;;;;;5086744;28;20353;-80
2021/04/20 04:56:26;;;;;;;32.90;6.07;;;;;;;;;;5083731;28;20356;-80
2021/04/20 04:58:54;;;;;;;12.63;5.80;;;;;;;;;;5087565;28;20390;-81
2021/04/20 05:01:20;;;;;;;15.38;5.20;;;;;;;;;;5057940;28;20043;-80
2021/04/20 05:03:46;;;;;;;12.52;5.60;;;;;;;;;;5066607;28;20025;-80
2021/04/20 05:06:16;;;;;;;8.52;5.32;;;;;;;;;;5085123;28;20345;-81
2021/04/20 05:08:42;;;;;;;9.60;5.38;;;;;;;;;;5046598;28;20519;-80
2021/04/20 05:11:07;;;;;;;20.02;6.63;;;;;;;;;;5083141;28;20024;-82
2021/04/20 05:13:34;;;;;;;7.78;4.60;;;;;;;;;;5078352;28;20475;-81
2021/04/20 05:16:03;;;;;;;8.13;4.93;;;;;;;;;;5072430;28;20070;-81
2021/04/20 05:18:30;;;;;;;8.65;5.78;;;;;;;;;;5069609;28;20020;-81
2021/04/20 05:20:55;;;;;;;12.57;5.15;;;;;;;;;;5062863;28;20020;-81
2021/04/20 05:23:21;;;;;;;14.52;5.85;;;;;;;;;;5060116;28;20480;-81
2021/04/20 05:25:47;;;;;;;21.23;5.90;;;;;;;;;;5078570;28;20031;-81
2021/04/20 05:28:12;;;;;;;12.68;5.32;;;;;;;;;;5059758;28;20475;-81
2021/04/20 05:30:38;;;;;;;16.73;5.80;;;;;;;;;;5076016;28;20115;-81
2021/04/20 05:33:07;;;;;;;23.63;6.55;;;;;;;;;;5073002;28;20033;-81
2021/04/20 05:35:32;;;;;;;13.18;6.22;;;;;;;;;;5070941;28;20531;-81
2021/04/20 05:37:58;;;;;;;15.98;6.63;;;;;;;;;;5071103;28;20028;-82
2021/04/20 05:40:26;;;;;;;13.30;5.45;;;;;;;;;;5069225;28;20579;-83
2021/04/20 05:42:52;;;;;;;13.27;5.63;;;;;;;;;;5068548;28;20027;-80
2021/04/20 05:45:18;;;;;;;29.17;6.07;;;;;;;;;;5067839;28;20031;-80
2021/04/20 05:47:44;;;;;;;18.05;5.97;;;;;;;;;;5068280;28;20024;-80
2021/04/20 05:50:13;;;;;;;10.77;5.97;;;;;;;;;;5077471;28;20020;-80
2021/04/20 05:52:38;;;;;;;8.38;5.20;;;;;;;;;;5074479;28;20526;-80
2021/04/20 05:55:05;;;;;;;10.70;5.38;;;;;;;;;;5082164;28;20029;-80
2021/04/20 05:57:31;;;;;;;10.88;5.13;;;;;;;;;;5076491;28;20032;-79
2021/04/20 05:59:57;;;;;;;8.73;5.28;;;;;;;;;;5075432;28;20468;-80
2021/04/20 06:02:24;;;;;;;10.45;5.65;;;;;;;;;;5077073;28;20075;-80
2021/04/20 06:04:51;;;;;;;9.88;4.80;;;;;;;;;;5075232;28;20070;-79
2021/04/20 06:07:17;;;;;;;7.68;4.53;;;;;;;;;;5061807;28;20032;-80
2021/04/20 06:09:44;;;;;;;8.23;5.57;;;;;;;;;;5063903;28;20028;-80
2021/04/20 06:12:10;;;;;;;6.60;4.45;;;;;;;;;;5058421;28;20501;-80
2021/04/20 06:14:36;;;;;;;11.07;4.82;;;;;;;;;;5063856;28;20021;-80
2021/04/20 06:17:02;;;;;;;11.18;5.90;;;;;;;;;;5065984;28;20374;-80
2021/04/20 06:19:27;;;;;;;11.60;5.57;;;;;;;;;;5069337;28;20076;-80
2021/04/20 06:21:54;;;;;;;15.00;5.55;;;;;;;;;;5060459;28;20350;-79
2021/04/20 06:24:20;;;;;;;16.00;5.90;;;;;;;;;;5062659;28;20090;-80
2021/04/20 06:26:47;;;;;;;17.40;6.05;;;;;;;;;;5069113;28;20059;-79
2021/04/20 06:29:13;;;;;;;25.55;6.88;;;;;;;;;;5067543;28;20066;-80
2021/04/20 06:31:39;;;;;;;15.15;7.05;;;;;;;;;;5064929;28;20377;-79
2021/04/20 06:34:06;;;;;;;18.55;7.63;;;;;;;;;;5067514;28;20488;-80
2021/04/20 06:36:31;;;;;;;11.20;5.35;;;;;;;;;;5062977;28;20048;-80
2021/04/20 06:38:58;;;;;;;8.85;5.40;;;;;;;;;;5064516;28;20686;-80
2021/04/20 06:41:25;;;;;;;9.05;5.93;;;;;;;;;;5059869;28;20056;-80
2021/04/20 06:44:10;;;;;;;14.05;6.90;;;;;;;;;;5059881;28;20027;-80
2021/04/20 06:46:43;;;;;;;14.25;6.40;;;;;;;;;;5043804;28;20385;-80
2021/04/20 06:49:22;;;;;;;8.93;5.97;;;;;;;;;;5061409;28;20012;-81
2021/04/20 06:51:49;;;;;;;11.98;7.18;;;;;;;;;;5063997;28;20024;-80
2021/04/20 06:54:35;;;;;;;12.73;7.72;;;;;;;;;;5064958;28;20138;-80
2021/04/20 06:57:11;;;;;;;12.02;6.80;;;;;;;;;;5057118;28;20035;-80
2021/04/20 06:59:46;;;;;;;12.45;6.97;;;;;;;;;;5064576;28;20043;-80
2021/04/20 07:02:17;;;;;;;13.70;7.72;;;;;;;;;;5063940;28;20051;-80
2021/04/20 07:04:48;;;;;;;20.33;9.50;;;;;;;;;;5057924;28;20025;-81
2021/04/20 07:07:14;;;;;;;17.17;8.50;;;;;;;;;;5040315;28;20055;-81
2021/04/20 07:09:46;;;;;;;14.88;9.23;;;;;;;;;;5071539;28;20137;-81
2021/04/20 07:12:13;;;;;;;15.50;9.80;;;;;;;;;;5067667;28;20825;-80
2021/04/20 07:15:00;;;;;;;16.85;10.25;;;;;;;;;;5063471;28;20020;-80
2021/04/20 07:17:38;;;;;;;16.13;10.55;;;;;;;;;;5049092;28;20033;-80
2021/04/20 07:20:04;;;;;;;13.50;8.25;;;;;;;;;;5059201;28;20083;-80
2021/04/20 07:22:48;;;;;;;14.98;9.10;;;;;;;;;;5063084;28;20038;-80
2021/04/20 07:25:34;;;;;;;14.25;8.88;;;;;;;;;;5062287;28;20059;-80
2021/04/20 07:28:13;;;;;;;12.30;7.63;;;;;;;;;;5014598;28;20044;-80
2021/04/20 07:30:57;;;;;;;13.63;8.20;;;;;;;;;;5058301;28;20048;-80
2021/04/20 07:33:33;;;;;;;14.25;8.65;;;;;;;;;;5058059;28;20047;-80
2021/04/20 07:36:09;;;;;;;12.23;8.32;;;;;;;;;;5052842;28;20394;-80
2021/04/20 07:38:53;;;;;;;13.95;8.38;;;;;;;;;;5052593;28;20021;-80
2021/04/20 07:41:21;;;;;;;17.05;10.50;;;;;;;;;;5049497;28;20051;-80
2021/04/20 07:44:00;;;;;;;17.60;10.90;;;;;;;;;;5058324;28;20020;-80
2021/04/20 07:46:39;;;;;;;17.67;11.55;;;;;;;;;;5052672;28;20480;-80
2021/04/20 07:49:23;;;;;;;16.90;10.85;;;;;;;;;;5057919;28;20025;-80
2021/04/20 07:51:58;;;;;;;17.23;10.60;;;;;;;;;;5062546;28;20432;-80
2021/04/20 07:54:43;;;;;;;17.52;11.93;;;;;;;;;;5055415;28;20031;-80
2021/04/20 07:59:37;;;;;;;16.83;10.77;;;;;;;;;;5113442;27;20355;-80
2021/04/20 08:02:11;;;;;;;15.05;9.75;;;;;;;;;;5097473;28;20056;-81
2021/04/20 08:04:52;;;;;;;16.63;11.13;;;;;;;;;;5096210;28;20044;-80
2021/04/20 08:07:33;;;;;;;16.27;9.95;;;;;;;;;;5071852;28;20103;-80
2021/04/20 08:10:01;;;;;;;16.38;10.55;;;;;;;;;;5077311;28;20459;-80
2021/04/20 08:12:28;;;;;;;14.88;10.63;;;;;;;;;;5078886;28;20021;-80
2021/04/20 08:15:00;;;;;;;18.38;11.05;;;;;;;;;;5076542;28;20411;-81
2021/04/20 08:17:32;;;;;;;14.90;10.45;;;;;;;;;;5078520;28;20055;-80
2021/04/20 08:20:24;;;;;;;13.98;9.55;;;;;;;;;;5076112;28;20028;-80
2021/04/20 08:22:51;;;;;;;14.02;9.27;;;;;;;;;;5077238;28;20070;-81
2021/04/20 08:25:19;;;;;;;14.20;9.63;;;;;;;;;;5076112;28;20016;-81
2021/04/20 08:27:48;;;;;;;14.80;10.23;;;;;;;;;;5078495;28;20064;-81
2021/04/20 08:30:14;;;;;;;15.45;10.23;;;;;;;;;;5074501;28;20406;-80
2021/04/20 08:32:43;;;;;;;16.90;10.95;;;;;;;;;;5077580;28;20024;-81
2021/04/20 08:35:12;;;;;;;21.05;11.88;;;;;;;;;;5079631;28;20036;-81
2021/04/20 08:37:53;;;;;;;22.20;13.02;;;;;;;;;;5073156;28;20024;-81
2021/04/20 08:40:22;;;;;;;20.40;13.77;;;;;;;;;;5063554;28;20032;-81
2021/04/20 08:42:51;;;;;;;19.80;13.52;;;;;;;;;;5076747;28;20012;-80
2021/04/20 08:45:28;;;;;;;21.70;14.55;;;;;;;;;;5069908;28;20020;-81
2021/04/20 08:48:08;;;;;;;22.08;15.63;;;;;;;;;;5068442;28;20052;-83
2021/04/20 08:50:39;;;;;;;22.40;16.23;;;;;;;;;;5078166;28;20070;-83
2021/04/20 08:53:05;;;;;;;;;;;;;;;;;;5072102;28;20520;-83
2021/04/20 08:55:43;;;;;;;25.17;17.38;;;;;;;;;;5081070;28;19919;-83
2021/04/20 08:58:11;;;;;;;26.70;16.67;;;;;;;;;;5075883;28;20495;-83
2021/04/20 09:00:57;;;;;;;27.15;17.42;;;;;;;;;;5078832;28;20064;-83
2021/04/20 09:03:32;;;;;;;22.75;15.18;;;;;;;;;;5077946;28;20016;-83
2021/04/20 09:06:00;;;;;;;23.38;16.17;;;;;;;;;;5077647;28;20063;-83
2021/04/20 09:08:26;;;;;;;26.38;17.10;;;;;;;;;;5079427;28;20060;-83
2021/04/20 09:10:56;;;;;;;24.13;15.05;;;;;;;;;;5065079;28;20147;-83
2021/04/20 09:13:22;;;;;;;22.98;15.65;;;;;;;;;;5059145;28;20029;-83
2021/04/20 09:15:53;;;;;;;22.27;16.23;;;;;;;;;;5059682;28;20103;-83
2021/04/20 09:18:25;;;;;;;22.85;15.60;;;;;;;;;;5058231;28;20052;-83
2021/04/20 09:20:56;;;;;;;21.58;16.40;;;;;;;;;;5068993;28;20028;-83
2021/04/20 09:23:26;;;;;;;22.38;15.00;;;;;;;;;;5057918;28;20112;-83
2021/04/20 09:25:52;;;;;;;20.25;14.98;;;;;;;;;;5070078;28;20020;-83
2021/04/20 09:28:43;;;;;;;21.27;14.82;;;;;;;;;;5061830;28;20098;-83
2021/04/20 09:31:19;;;;;;;19.13;14.30;;;;;;;;;;5060347;28;20072;-83
2021/04/20 09:33:46;;;;;;;23.17;14.23;;;;;;;;;;5064349;28;20096;-83
2021/04/20 09:36:12;;;;;;;22.08;15.13;;;;;;;;;;5064972;28;20500;-83
2021/04/20 09:38:41;;;;;;;23.90;15.57;;;;;;;;;;5064623;28;20075;-83
2021/04/20 09:41:08;;;;;;;19.58;14.80;;;;;;;;;;5064174;28;20392;-83
2021/04/20 09:43:39;;;;;;;21.08;15.65;;;;;;;;;;5066518;28;20029;-83
2021/04/20 09:46:10;;;;;;;21.48;14.32;;;;;;;;;;5063137;28;20048;-83
2021/04/20 09:48:45;;;;;;;18.67;13.73;;;;;;;;;;5064536;28;20023;-83
2021/04/20 09:51:30;;;;;;;20.77;13.85;;;;;;;;;;5062983;28;20020;-84
2021/04/20 09:54:00;;;;;;;20.13;13.85;;;;;;;;;;5063191;28;20020;-83
2021/04/20 09:57:02;;;;;;;18.70;13.63;;;;;;;;;;5060430;28;20024;-83
2021/04/20 09:59:42;;;;;;;16.45;11.75;;;;;;;;;;4955102;28;20039;-83
2021/04/20 10:02:14;;;;;;;19.10;11.15;;;;;;;;;;5040760;28;20037;-83
2021/04/20 10:04:39;;;;;;;;;;;;;;;;;;5063536;28;20061;-83
2021/04/20 10:07:14;;;;;;;19.02;13.05;;;;;;;;;;5055489;28;19920;-81
2021/04/20 10:09:46;;;;;;;20.25;13.93;;;;;;;;;;5061250;28;20028;-81
2021/04/20 10:12:31;;;;;;;23.00;13.20;;;;;;;;;;5066216;28;20038;-82
2021/04/20 10:15:04;;;;;;;17.27;12.20;;;;;;;;;;5062757;28;20020;-82
2021/04/20 10:17:38;;;;;;;19.30;13.57;;;;;;;;;;5061227;28;20480;-82
2021/04/20 10:20:03;;;;;;;15.35;10.88;;;;;;;;;;5062768;28;20460;-82
2021/04/20 10:22:33;;;;;;;19.02;12.45;;;;;;;;;;5062090;28;20024;-82
2021/04/20 10:25:07;;;;;;;19.60;12.82;;;;;;;;;;5063925;28;20031;-82
2021/04/20 10:27:35;;;;;;;18.30;12.88;;;;;;;;;;5045994;28;20016;-82
2021/04/20 10:30:03;;;;;;;15.15;10.63;;;;;;;;;;5063230;28;20021;-82
2021/04/20 10:32:29;;;;;;;14.23;10.57;;;;;;;;;;5062866;28;20451;-82
2021/04/20 10:34:54;;;;;;;19.75;13.48;;;;;;;;;;5062203;28;20024;-83
2021/04/20 10:37:28;;;;;;;19.52;12.82;;;;;;;;;;5063769;28;20108;-82
2021/04/20 10:39:54;;;;;;;16.38;11.40;;;;;;;;;;5062639;28;20070;-83
2021/04/20 10:42:27;;;;;;;17.75;11.98;;;;;;;;;;5054783;28;20037;-82
2021/04/20 10:44:54;;;;;;;18.23;12.48;;;;;;;;;;5059913;28;20033;-81
2021/04/20 10:47:21;;;;;;;16.52;12.32;;;;;;;;;;5058202;28;20408;-82
2021/04/20 10:49:51;;;;;;;17.00;13.18;;;;;;;;;;5059317;28;20076;-82
2021/04/20 10:52:18;;;;;;;16.88;11.05;;;;;;;;;;5062054;28;20380;-82
2021/04/20 10:54:44;;;;;;;15.57;10.50;;;;;;;;;;5047333;28;20021;-82
2021/04/20 10:57:11;;;;;;;15.68;10.43;;;;;;;;;;5055762;28;20025;-82
2021/04/20 10:59:39;;;;;;;15.02;10.65;;;;;;;;;;5049664;28;20022;-82
2021/04/20 11:02:17;;;;;;;17.95;11.88;;;;;;;;;;5050293;28;20067;-82
2021/04/20 11:04:43;;;;;;;17.85;12.70;;;;;;;;;;5047098;28;20025;-82
2021/04/20 11:07:19;;;;;;;15.38;10.52;;;;;;;;;;5051231;28;20100;-81
2021/04/20 11:09:55;;;;;;;13.52;10.57;;;;;;;;;;5052158;28;20025;-81
2021/04/20 11:12:21;;;;;;;16.35;10.93;;;;;;;;;;5052348;28;20020;-79
2021/04/20 11:14:49;;;;;;;14.75;11.02;;;;;;;;;;5055384;28;20028;-79
2021/04/20 11:17:30;;;;;;;19.60;12.02;;;;;;;;;;5053151;28;20052;-80
2021/04/20 11:20:11;;;;;;;15.85;10.00;;;;;;;;;;5050715;28;20090;-79
2021/04/20 11:22:42;;;;;;;16.23;10.13;;;;;;;;;;5047102;28;20021;-79
2021/04/20 11:25:18;;;;;;;11.30;8.15;;;;;;;;;;5053240;28;20017;-78
2021/04/20 11:27:45;;;;;;;14.98;9.52;;;;;;;;;;5051737;28;20025;-79
2021/04/20 11:30:14;;;;;;;13.95;9.20;;;;;;;;;;5055151;28;20083;-79
2021/04/20 11:32:48;;;;;;;13.68;9.48;;;;;;;;;;5054521;28;20477;-79
2021/04/20 11:35:14;;;;;;;13.35;10.40;;;;;;;;;;5054254;28;20048;-79
2021/04/20 11:37:41;;;;;;;15.95;10.93;;;;;;;;;;5060918;28;20065;-79
2021/04/20 11:40:07;;;;;;;12.23;8.77;;;;;;;;;;5053560;28;20022;-79
2021/04/20 11:42:34;;;;;;;11.68;7.78;;;;;;;;;;5056011;28;20083;-79
2021/04/20 11:45:11;;;;;;;13.35;8.85;;;;;;;;;;5056278;28;20025;-79
2021/04/20 11:47:48;;;;;;;9.63;6.57;;;;;;;;;;5054746;28;20485;-79
2021/04/20 11:50:14;;;;;;;12.55;8.85;;;;;;;;;;5058965;28;20032;-79
2021/04/20 11:52:41;;;;;;;11.73;8.30;;;;;;;;;;5057150;28;20033;-79
2021/04/20 11:55:08;;;;;;;10.38;6.47;;;;;;;;;;5055703;28;20021;-79
2021/04/20 11:57:35;;;;;;;8.75;6.10;;;;;;;;;;5050907;28;20037;-79
2021/04/20 12:00:04;;;;;;;9.15;6.53;;;;;;;;;;5055151;28;20044;-78
2021/04/20 12:02:30;;;;;;;8.63;6.28;;;;;;;;;;5054068;28;20574;-79
2021/04/20 12:05:04;;;;;;;9.38;6.57;;;;;;;;;;5053520;28;20025;-79
2021/04/20 12:07:32;;;;;;;10.95;7.47;;;;;;;;;;5055557;28;20051;-79
2021/04/20 12:10:00;;;;;;;8.57;6.03;;;;;;;;;;5052012;28;20528;-79
2021/04/20 12:12:29;;;;;;;7.75;4.80;;;;;;;;;;5042015;28;20021;-80
2021/04/20 12:14:55;;;;;;;7.90;5.60;;;;;;;;;;5045493;28;20107;-79
2021/04/20 12:17:38;;;;;;;17.45;6.68;;;;;;;;;;5047019;28;20024;-79
2021/04/20 12:20:09;;;;;;;9.20;6.07;;;;;;;;;;5049791;28;20393;-79
2021/04/20 12:22:34;;;;;;;8.05;5.70;;;;;;;;;;5045083;28;20029;-80
2021/04/20 12:25:01;;;;;;;8.45;5.78;;;;;;;;;;5050616;28;20031;-80
2021/04/20 12:27:29;;;;;;;7.75;5.47;;;;;;;;;;5041523;28;20028;-81
2021/04/20 12:29:58;;;;;;;11.25;6.28;;;;;;;;;;5048594;28;20060;-80
2021/04/20 12:32:24;;;;;;;7.50;5.10;;;;;;;;;;5044095;28;20028;-81
2021/04/20 12:34:56;;;;;;;9.18;6.22;;;;;;;;;;5046479;28;20032;-81
2021/04/20 12:37:26;;;;;;;9.35;6.40;;;;;;;;;;5053541;28;20025;-80
2021/04/20 12:39:54;;;;;;;8.05;5.72;;;;;;;;;;5050821;28;20068;-81
2021/04/20 12:42:20;;;;;;;8.88;6.47;;;;;;;;;;5051932;28;20024;-80
2021/04/20 12:44:47;;;;;;;9.68;6.65;;;;;;;;;;5054424;28;20020;-81
2021/04/20 12:47:15;;;;;;;10.35;7.05;;;;;;;;;;5055084;28;20020;-81
2021/04/20 12:49:45;;;;;;;9.80;6.40;;;;;;;;;;5052931;28;20097;-81
2021/04/20 12:52:12;;;;;;;7.63;5.32;;;;;;;;;;5051805;28;20029;-80
2021/04/20 12:54:39;;;;;;;7.15;5.05;;;;;;;;;;5051487;28;20045;-81
2021/04/20 12:57:06;;;;;;;9.90;6.07;;;;;;;;;;5054079;28;20024;-81
2021/04/20 12:59:33;;;;;;;5.88;4.53;;;;;;;;;;5057543;28;20036;-81
2021/04/20 13:01:59;;;;;;;8.60;6.20;;;;;;;;;;5060339;28;20052;-81
2021/04/20 13:04:26;;;;;;;8.30;5.68;;;;;;;;;;5062731;28;20020;-81
2021/04/20 13:06:53;;;;;;;8.65;5.72;;;;;;;;;;5062771;28;20029;-81
2021/04/20 13:09:23;;;;;;;8.60;6.13;;;;;;;;;;5070552;28;20035;-81
2021/04/20 13:11:50;;;;;;;8.57;6.28;;;;;;;;;;5057353;28;20021;-80
2021/04/20 13:14:19;;;;;;;7.43;5.90;;;;;;;;;;5052828;28;20017;-81
2021/04/20 13:16:45;;;;;;;6.50;4.60;;;;;;;;;;5052543;28;20496;-80
2021/04/20 13:19:11;;;;;;;6.93;5.05;;;;;;;;;;5053681;28;20063;-81
2021/04/20 13:21:40;;;;;;;7.88;5.30;;;;;;;;;;5057063;28;20068;-81
2021/04/20 13:24:12;;;;;;;8.80;5.97;;;;;;;;;;5058431;28;20433;-80
2021/04/20 13:26:38;;;;;;;;;;;;;;;;;;5057938;28;20075;-81
2021/04/20 13:29:05;;;;;;;9.25;5.63;;;;;;;;;;5058722;28;19908;-81
2021/04/20 13:31:32;;;;;;;6.57;4.40;;;;;;;;;;5058068;28;20048;-80
2021/04/20 13:34:02;;;;;;;7.13;5.07;;;;;;;;;;5055774;28;20393;-80
2021/04/20 13:36:29;;;;;;;7.75;5.55;;;;;;;;;;5055537;28;20032;-80
2021/04/20 13:39:00;;;;;;;8.13;5.30;;;;;;;;;;5057175;28;20025;-80
2021/04/20 13:41:29;;;;;;;7.72;5.72;;;;;;;;;;5052580;28;20040;-81
2021/04/20 13:43:55;;;;;;;6.53;4.43;;;;;;;;;;5052002;28;20064;-80
2021/04/20 13:46:21;;;;;;;8.32;5.30;;;;;;;;;;5055421;28;20025;-80
2021/04/20 13:48:47;;;;;;;8.20;5.43;;;;;;;;;;5053914;28;20052;-81
2021/04/20 13:51:14;;;;;;;7.78;5.68;;;;;;;;;;5054305;28;20023;-80
2021/04/20 13:53:44;;;;;;;10.35;5.90;;;;;;;;;;5052226;28;20098;-80
2021/04/20 13:56:12;;;;;;;7.30;5.43;;;;;;;;;;5053121;28;20037;-80
2021/04/20 13:58:49;;;;;;;5.03;3.60;;;;;;;;;;5052111;28;20025;-81
2021/04/20 14:01:19;;;;;;;12.18;5.32;;;;;;;;;;5052149;28;20024;-81
2021/04/20 14:03:50;;;;;;;6.30;4.90;;;;;;;;;;5051499;28;20527;-80
2021/04/20 14:06:16;;;;;;;7.72;4.40;;;;;;;;;;5057988;28;20440;-80
2021/04/20 14:08:44;;;;;;;5.72;4.22;;;;;;;;;;5050843;28;20053;-79
2021/04/20 14:11:10;;;;;;;6.63;4.05;;;;;;;;;;5057615;28;20028;-79
2021/04/20 14:13:40;;;;;;;9.95;4.93;;;;;;;;;;5051202;28;20029;-80
2021/04/20 14:16:09;;;;;;;7.63;3.97;;;;;;;;;;5052844;28;20075;-79
2021/04/20 14:18:34;;;;;;;8.02;4.43;;;;;;;;;;5055693;28;20056;-80
2021/04/20 14:21:11;;;;;;;5.18;3.88;;;;;;;;;;5060085;28;20029;-80
2021/04/20 14:23:39;;;;;;;8.73;5.25;;;;;;;;;;5057311;28;20547;-80
2021/04/20 14:26:05;;;;;;;5.90;4.05;;;;;;;;;;5049257;28;20028;-81
2021/04/20 14:28:37;;;;;;;6.22;4.40;;;;;;;;;;5053592;28;20053;-81
2021/04/20 14:31:03;;;;;;;6.22;3.30;;;;;;;;;;5051529;28;20017;-80
2021/04/20 14:33:32;;;;;;;6.88;3.95;;;;;;;;;;5052416;28;20063;-80
2021/04/20 14:35:59;;;;;;;7.07;3.80;;;;;;;;;;5052233;28;20067;-80
2021/04/20 14:38:29;;;;;;;6.45;4.35;;;;;;;;;;5054369;28;20017;-81
2021/04/20 14:40:55;;;;;;;5.75;3.95;;;;;;;;;;5048639;28;20104;-80
2021/04/20 14:43:20;;;;;;;5.22;3.47;;;;;;;;;;5055826;28;20488;-80
2021/04/20 14:45:48;;;;;;;5.50;4.05;;;;;;;;;;5051420;28;20024;-80
2021/04/20 14:48:17;;;;;;;5.35;3.67;;;;;;;;;;5054740;28;20028;-80
2021/04/20 14:50:45;;;;;;;5.72;3.42;;;;;;;;;;5049885;28;20428;-80
2021/04/20 14:55:29;;;;;;;6.65;3.97;;;;;;;;;;5119375;27;20378;-79
2021/04/20 14:57:56;;;;;;;6.53;4.15;;;;;;;;;;5115887;28;20479;-79
2021/04/20 15:00:27;;;;;;;6.20;4.00;;;;;;;;;;5118959;27;20767;-79
2021/04/20 15:02:53;;;;;;;6.88;4.07;;;;;;;;;;5112379;28;20445;-80
2021/04/20 15:05:23;;;;;;;5.80;3.60;;;;;;;;;;5101980;28;20034;-80
2021/04/20 15:07:52;;;;;;;4.97;3.53;;;;;;;;;;5103943;28;20036;-79
2021/04/20 15:10:30;;;;;;;4.60;3.15;;;;;;;;;;5106859;28;20429;-79
2021/04/20 15:13:12;;;;;;;5.38;3.30;;;;;;;;;;5102767;28;20024;-79
2021/04/20 15:15:42;;;;;;;4.95;3.35;;;;;;;;;;5104792;28;20028;-79
2021/04/20 15:18:10;;;;;;;4.90;2.72;;;;;;;;;;5118049;28;20361;-79
2021/04/20 15:20:38;;;;;;;4.57;3.13;;;;;;;;;;5119088;28;20085;-78
2021/04/20 15:23:08;;;;;;;3.88;2.85;;;;;;;;;;5122872;27;20023;-79
2021/04/20 15:25:38;;;;;;;4.97;3.30;;;;;;;;;;5115865;28;20051;-79
2021/04/20 15:28:11;;;;;;;4.57;2.80;;;;;;;;;;5123182;27;20057;-79
2021/04/20 15:30:37;;;;;;;4.32;2.72;;;;;;;;;;5117822;27;20024;-78
2021/04/20 15:33:07;;;;;;;4.60;2.58;;;;;;;;;;5122815;28;20084;-79
2021/04/20 15:35:34;;;;;;;4.00;2.45;;;;;;;;;;5118871;28;20020;-79
2021/04/20 15:38:08;;;;;;;5.35;2.80;;;;;;;;;;5122877;28;20099;-79
2021/04/20 15:40:40;;;;;;;4.50;2.60;;;;;;;;;;5105272;28;20057;-78
2021/04/20 15:43:07;;;;;;;4.45;2.92;;;;;;;;;;5122857;28;20026;-78
2021/04/20 15:45:34;;;;;;;4.85;3.45;;;;;;;;;;5117496;28;20027;-78
2021/04/20 15:48:02;;;;;;;4.95;2.75;;;;;;;;;;5116851;28;20488;-78
2021/04/20 15:50:30;;;;;;;5.80;2.80;;;;;;;;;;5119148;27;20051;-78
2021/04/20 15:52:56;;;;;;;4.07;2.42;;;;;;;;;;5117544;28;20522;-78
2021/04/20 15:55:27;;;;;;;4.30;2.78;;;;;;;;;;5119042;28;20028;-79
2021/04/20 15:57:54;;;;;;;4.45;2.28;;;;;;;;;;5117992;28;20027;-79
2021/04/20 16:00:29;;;;;;;5.25;2.28;;;;;;;;;;5121056;27;20015;-79
2021/04/20 16:03:00;;;;;;;3.97;2.10;;;;;;;;;;5110324;28;20019;-78
2021/04/20 16:05:28;;;;;;;4.20;2.47;;;;;;;;;;5110810;27;20567;-78
2021/04/20 16:07:54;;;;;;;4.32;2.45;;;;;;;;;;5106907;28;20034;-79
2021/04/20 16:10:21;;;;;;;4.20;2.72;;;;;;;;;;5115140;28;20023;-78
2021/04/20 16:12:50;;;;;;;4.15;2.75;;;;;;;;;;5101992;27;20391;-78
2021/04/20 16:15:31;;;;;;;4.38;2.70;;;;;;;;;;5094200;28;20585;-78
2021/04/20 16:17:58;;;;;;;3.77;2.43;;;;;;;;;;5101253;27;20483;-78
2021/04/20 16:20:31;;;;;;;3.92;2.83;;;;;;;;;;5106323;28;20030;-79
2021/04/20 16:23:01;;;;;;;5.88;3.03;;;;;;;;;;5101838;28;20028;-78
2021/04/20 16:25:34;;;;;;;6.05;4.18;;;;;;;;;;5100393;28;20152;-78
2021/04/20 16:28:03;;;;;;;7.32;4.82;;;;;;;;;;5102146;27;20028;-79
2021/04/20 16:30:29;;;;;;;6.97;5.05;;;;;;;;;;5092432;28;20035;-78
2021/04/20 16:32:59;;;;;;;6.60;4.50;;;;;;;;;;5104014;28;20029;-78
2021/04/20 16:35:27;;;;;;;6.78;4.22;;;;;;;;;;5094159;28;20414;-78
2021/04/20 16:38:11;;;;;;;7.20;4.70;;;;;;;;;;5105507;28;20019;-78
2021/04/20 16:40:49;;;;;;;7.00;4.43;;;;;;;;;;5088940;28;20051;-81
2021/04/20 16:43:23;;;;;;;6.80;4.30;;;;;;;;;;5089795;28;20016;-80
2021/04/20 16:46:07;;;;;;;5.88;4.20;;;;;;;;;;5087038;28;20077;-79
2021/04/20 16:48:45;;;;;;;6.78;4.35;;;;;;;;;;5083752;28;20493;-79
2021/04/20 16:51:16;;;;;;;6.53;4.40;;;;;;;;;;5083794;28;20084;-79
2021/04/20 16:53:48;;;;;;;7.03;4.55;;;;;;;;;;5083263;28;20055;-79
2021/04/20 16:56:14;;;;;;;6.63;3.97;;;;;;;;;;5082440;28;20480;-79
2021/04/20 16:58:51;;;;;;;5.72;4.07;;;;;;;;;;5085572;28;20046;-80
2021/04/20 17:01:28;;;;;;;6.38;3.97;;;;;;;;;;5077336;28;20437;-79
2021/04/20 17:04:06;;;;;;;7.07;4.40;;;;;;;;;;5084800;28;20055;-79
2021/04/20 17:06:50;;;;;;;6.25;3.92;;;;;;;;;;5083198;28;20106;-79
2021/04/20 17:09:22;;;;;;;5.28;3.70;;;;;;;;;;5084359;28;20047;-79
2021/04/20 17:11:51;;;;;;;8.93;4.18;;;;;;;;;;5089121;28;20059;-80
2021/04/20 17:14:32;;;;;;;4.28;2.90;;;;;;;;;;5088050;28;20023;-79
2021/04/20 17:17:07;;;;;;;6.72;3.90;;;;;;;;;;5097027;28;20039;-80
2021/04/20 17:19:35;;;;;;;5.50;3.58;;;;;;;;;;5084940;28;20060;-79
2021/04/20 17:22:20;;;;;;;5.10;3.10;;;;;;;;;;5085980;28;20054;-79
2021/04/20 17:24:58;;;;;;;5.75;3.58;;;;;;;;;;5085915;28;20069;-80
2021/04/20 17:27:41;;;;;;;7.00;4.00;;;;;;;;;;5085070;28;20046;-80
2021/04/20 17:30:13;;;;;;;5.65;3.42;;;;;;;;;;5098014;28;20031;-79
2021/04/20 17:32:56;;;;;;;5.60;4.05;;;;;;;;;;5085865;28;20023;-80
2021/04/20 17:35:28;;;;;;;5.75;3.75;;;;;;;;;;5092627;28;20065;-80
2021/04/20 17:38:07;;;;;;;5.55;3.28;;;;;;;;;;5092758;28;20054;-80
2021/04/20 17:40:33;;;;;;;4.68;3.03;;;;;;;;;;5089433;28;20048;-80
2021/04/20 17:43:18;;;;;;;4.45;2.60;;;;;;;;;;5097908;28;20137;-80
2021/04/20 17:45:43;;;;;;;4.30;2.80;;;;;;;;;;5091221;28;20059;-80
2021/04/20 17:48:11;;;;;;;4.75;2.83;;;;;;;;;;5088378;28;20025;-81
2021/04/20 17:50:58;;;;;;;3.42;1.95;;;;;;;;;;5088469;28;20016;-80
2021/04/20 17:53:34;;;;;;;5.72;2.65;;;;;;;;;;5083458;28;20776;-80
2021/04/20 17:56:19;;;;;;;4.43;2.85;;;;;;;;;;5090691;28;20047;-79
2021/04/20 17:58:57;;;;;;;4.82;2.63;;;;;;;;;;5106622;28;20038;-79
2021/04/20 18:01:22;;;;;;;4.00;2.60;;;;;;;;;;5103090;28;20016;-80
2021/04/20 18:03:50;;;;;;;5.13;3.15;;;;;;;;;;5084299;28;20066;-80
2021/04/20 18:06:34;;;;;;;5.10;2.88;;;;;;;;;;5091184;28;20102;-79
2021/04/20 18:09:20;;;;;;;9.38;3.30;;;;;;;;;;5090277;28;20050;-79
2021/04/20 18:11:52;;;;;;;6.47;2.95;;;;;;;;;;5093681;28;20539;-79
2021/04/20 18:14:37;;;;;;;3.90;2.67;;;;;;;;;;5089784;28;20726;-79
2021/04/20 18:17:21;;;;;;;4.03;2.75;;;;;;;;;;5087789;28;20032;-78
2021/04/20 18:19:47;;;;;;;5.30;3.03;;;;;;;;;;5087260;28;20451;-77
2021/04/20 18:22:31;;;;;;;3.90;2.78;;;;;;;;;;5085688;28;20012;-78
2021/04/20 18:25:06;;;;;;;3.17;2.35;;;;;;;;;;5089022;28;20073;-79
2021/04/20 18:27:58;;;;;;;4.47;2.78;;;;;;;;;;5082333;28;20047;-79
2021/04/20 18:30:29;;;;;;;3.30;2.30;;;;;;;;;;5079665;28;20095;-79
2021/04/20 18:33:15;;;;;;;3.53;2.30;;;;;;;;;;5078210;28;20082;-79
2021/04/20 18:36:00;;;;;;;3.65;2.50;;;;;;;;;;5051381;28;20028;-79
2021/04/20 18:38:48;;;;;;;3.95;2.70;;;;;;;;;;5086502;28;20043;-78
2021/04/20 18:41:16;;;;;;;4.07;2.78;;;;;;;;;;5080886;28;20077;-79
2021/04/20 18:46:07;;;;;;;3.85;2.65;;;;;;;;;;5062949;28;20391;-78
2021/04/20 18:48:51;;;;;;;4.45;3.17;;;;;;;;;;5048587;28;20037;-78
2021/04/20 18:51:20;;;;;;;4.20;2.67;;;;;;;;;;5050386;28;20030;-79
2021/04/20 18:54:04;;;;;;;5.00;2.53;;;;;;;;;;5055093;28;20105;-79
2021/04/20 18:56:37;;;;;;;4.38;2.80;;;;;;;;;;5045692;28;20489;-77
2021/04/20 18:59:06;;;;;;;4.15;3.00;;;;;;;;;;5054044;28;20032;-78
2021/04/20 19:01:45;;;;;;;4.13;2.70;;;;;;;;;;5046804;28;20037;-78
2021/04/20 19:04:29;;;;;;;4.32;3.00;;;;;;;;;;5043379;28;20386;-78
2021/04/20 19:07:04;;;;;;;4.35;2.90;;;;;;;;;;5041307;28;20056;-78
2021/04/20 19:09:35;;;;;;;6.57;3.25;;;;;;;;;;5056054;28;20226;-78
2021/04/20 19:12:01;;;;;;;;;;;;;;;;;;5051745;28;20029;-79
2021/04/20 19:14:33;;;;;;;4.20;2.63;;;;;;;;;;5053818;28;20373;-79
2021/04/20 19:16:58;;;;;;;7.85;2.70;;;;;;;;;;5045031;28;20030;-78
2021/04/20 19:19:24;;;;;;;4.30;2.50;;;;;;;;;;5051117;28;20020;-78
2021/04/20 19:21:59;;;;;;;5.20;2.70;;;;;;;;;;5050682;28;20532;-78
2021/04/20 19:24:47;;;;;;;4.60;3.05;;;;;;;;;;5051270;28;20124;-78
2021/04/20 19:27:13;;;;;;;4.35;2.90;;;;;;;;;;5043414;28;20067;-78
2021/04/20 19:29:57;;;;;;;4.03;2.58;;;;;;;;;;5057253;28;19913;-78
2021/04/20 19:32:33;;;;;;;4.07;2.72;;;;;;;;;;5045176;28;20055;-77
2021/04/20 19:35:15;;;;;;;4.78;3.10;;;;;;;;;;5040788;28;20029;-78
2021/04/20 19:37:41;;;;;;;;;;;;;;;;;;5033704;28;20107;-78
2021/04/20 19:40:09;;;;;;;4.05;2.58;;;;;;;;;;5048359;28;19916;-77
2021/04/20 19:42:42;;;;;;;4.07;2.80;;;;;;;;;;5043990;28;20040;-78
2021/04/20 19:45:23;;;;;;;4.15;2.67;;;;;;;;;;5042563;28;20123;-78
2021/04/20 19:47:48;;;;;;;4.57;2.70;;;;;;;;;;5044156;28;20607;-77
2021/04/20 19:50:19;;;;;;;4.32;2.90;;;;;;;;;;5055297;28;20104;-78
2021/04/20 19:52:46;;;;;;;7.10;3.10;;;;;;;;;;5051329;28;20028;-78
2021/04/20 19:55:13;;;;;;;6.28;2.70;;;;;;;;;;5050082;28;20029;-78